createdAt,value
2018-06-09T00:01:50.176Z,99583.81
2018-06-09T00:04:18.763Z,99588.28
2018-06-09T00:06:47.358Z,99580.85
2018-06-09T00:09:15.875Z,99579.60
2018-06-09T00:11:44.533Z,99588.11
2018-06-09T00:14:13.607Z,99584.94
2018-06-09T00:16:52.492Z,99578.18
2018-06-09T00:19:21.122Z,99580.94
2018-06-09T00:21:49.736Z,99574.55
2018-06-09T00:24:18.230Z,99574.84
2018-06-09T00:26:47.217Z,99579.14
2018-06-09T00:29:15.728Z,99573.30
2018-06-09T00:31:44.276Z,99572.92
2018-06-09T00:34:12.788Z,99568.83
2018-06-09T00:36:41.368Z,99571.38
2018-06-09T00:39:09.884Z,99566.16
2018-06-09T00:41:38.509Z,99568.83
2018-06-09T00:44:07.282Z,99571.68
2018-06-09T00:46:36.305Z,99572.55
2018-06-09T00:49:04.956Z,99573.97
2018-06-09T00:51:33.542Z,99571.50
2018-06-09T00:54:02.101Z,99567.97
2018-06-09T00:56:41.820Z,99573.88
2018-06-09T00:59:10.583Z,99572.47
2018-06-09T01:01:39.287Z,99568.28
2018-06-09T01:04:07.950Z,99570.38
2018-06-09T01:06:36.618Z,99575.88
2018-06-09T01:09:09.824Z,99570.91
2018-06-09T01:11:38.527Z,99572.45
2018-06-09T01:14:07.181Z,99569.19
2018-06-09T01:16:36.002Z,99577.02
2018-06-09T01:19:04.661Z,99575.09
2018-06-09T01:21:33.340Z,99581.09
2018-06-09T01:24:02.115Z,99578.16
2018-06-09T01:26:30.736Z,99576.53
2018-06-09T01:28:59.453Z,99577.11
2018-06-09T01:31:28.136Z,99581.27
2018-06-09T01:33:56.765Z,99575.67
2018-06-09T01:36:25.504Z,99573.66
2018-06-09T01:38:54.254Z,99577.06
2018-06-09T01:41:22.920Z,99573.73
2018-06-09T01:43:51.644Z,99576.20
2018-06-09T01:46:20.380Z,99575.91
2018-06-09T01:48:49.068Z,99568.95
2018-06-09T01:51:17.739Z,99570.85
2018-06-09T01:53:46.600Z,99567.13
2018-06-09T01:56:15.159Z,99571.28
2018-06-09T01:58:43.821Z,99569.27
2018-06-09T02:01:12.419Z,99571.34
2018-06-09T02:03:41.018Z,99562.84
2018-06-09T02:06:09.693Z,99563.88
2018-06-09T02:08:38.239Z,99563.99
2018-06-09T02:11:06.779Z,99563.69
2018-06-09T02:13:35.311Z,99562.93
2018-06-09T02:16:03.817Z,99568.72
2018-06-09T02:18:32.401Z,99571.69
2018-06-09T02:21:01.023Z,99572.45
2018-06-09T02:23:29.653Z,99571.88
2018-06-09T02:25:58.300Z,99571.23
2018-06-09T02:28:26.800Z,99572.02
2018-06-09T02:30:55.367Z,99569.73
2018-06-09T02:33:23.906Z,99570.20
2018-06-09T02:35:52.411Z,99565.16
2018-06-09T02:38:21.001Z,99570.42
2018-06-09T02:40:49.490Z,99567.56
2018-06-09T02:43:18.071Z,99560.89
2018-06-09T02:45:47.022Z,99561.66
2018-06-09T02:48:15.609Z,99554.99
2018-06-09T02:50:44.277Z,99550.53
2018-06-09T02:53:12.885Z,99554.91
2018-06-09T02:55:41.668Z,99551.29
2018-06-09T02:58:10.203Z,99555.75
2018-06-09T03:00:38.785Z,99554.42
2018-06-09T03:03:07.399Z,99547.86
2018-06-09T03:05:35.874Z,99552.24
2018-06-09T03:08:04.732Z,99545.66
2018-06-09T03:10:33.276Z,99543.56
2018-06-09T03:13:01.991Z,99541.47
2018-06-09T03:15:30.487Z,99547.34
2018-06-09T03:17:59.028Z,99547.46
2018-06-09T03:20:27.499Z,99549.75
2018-06-09T03:22:57.140Z,99552.11
2018-06-09T03:25:25.639Z,99551.34
2018-06-09T03:27:54.147Z,99548.30
2018-06-09T03:30:22.778Z,99548.84
2018-06-09T03:32:51.327Z,99551.51
2018-06-09T03:35:19.948Z,99546.18
2018-06-09T03:37:48.496Z,99544.47
2018-06-09T03:40:17.085Z,99542.18
2018-06-09T03:42:45.589Z,99546.09
2018-06-09T03:45:14.310Z,99543.81
2018-06-09T03:47:43.152Z,99550.39
2018-06-09T03:50:11.875Z,99552.03
2018-06-09T03:52:40.633Z,99558.01
2018-06-09T03:55:09.464Z,99552.52
2018-06-09T03:57:38.082Z,99548.90
2018-06-09T04:00:06.783Z,99561.27
2018-06-09T04:02:35.356Z,99551.27
2018-06-09T04:05:03.988Z,99570.41
2018-06-09T04:07:32.497Z,99564.57
2018-06-09T04:10:01.064Z,99569.33
2018-06-09T04:12:29.596Z,99564.68
2018-06-09T04:14:58.229Z,99566.11
2018-06-09T04:17:26.727Z,99567.93
2018-06-09T04:19:55.266Z,99569.36
2018-06-09T04:22:23.795Z,99569.38
2018-06-09T04:24:52.392Z,99563.11
2018-06-09T04:27:20.948Z,99571.09
2018-06-09T04:29:49.481Z,99571.86
2018-06-09T04:32:18.108Z,99571.41
2018-06-09T04:34:46.691Z,99570.75
2018-06-09T04:37:15.305Z,99564.08
2018-06-09T04:39:43.872Z,99555.69
2018-06-09T04:42:12.433Z,99563.67
2018-06-09T04:44:41.124Z,99569.38
2018-06-09T04:47:09.668Z,99567.66
2018-06-09T04:49:38.284Z,99570.70
2018-06-09T04:52:06.923Z,99565.91
2018-06-09T04:54:35.427Z,99568.77
2018-06-09T04:57:04.022Z,99567.88
2018-06-09T04:59:32.611Z,99569.20
2018-06-09T05:02:01.258Z,99568.94
2018-06-09T05:04:29.951Z,99565.47
2018-06-09T05:06:58.588Z,99565.81
2018-06-09T05:09:27.174Z,99565.67
2018-06-09T05:11:55.680Z,99562.51
2018-06-09T05:14:24.230Z,99564.38
2018-06-09T05:16:52.749Z,99568.20
2018-06-09T05:19:21.509Z,99571.25
2018-06-09T05:21:50.087Z,99573.17
2018-06-09T05:24:18.611Z,99570.69
2018-06-09T05:26:47.174Z,99571.37
2018-06-09T05:29:15.847Z,99563.94
2018-06-09T05:31:44.446Z,99567.85
2018-06-09T05:34:13.243Z,99563.62
2018-06-09T05:36:41.969Z,99566.20
2018-06-09T05:39:10.585Z,99561.02
2018-06-09T05:41:39.240Z,99561.67
2018-06-09T05:44:07.785Z,99571.47
2018-06-09T05:46:36.440Z,99571.06
2018-06-09T05:49:05.017Z,99564.11
2018-06-09T05:51:33.535Z,99561.48
2018-06-09T05:54:02.113Z,99564.27
2018-06-09T05:56:30.638Z,99565.70
2018-06-09T05:58:59.321Z,99569.25
2018-06-09T06:01:27.910Z,99564.72
2018-06-09T06:03:56.500Z,99569.12
2018-06-09T06:06:25.287Z,99576.63
2018-06-09T06:08:53.898Z,99578.00
2018-06-09T06:11:22.437Z,99580.63
2018-06-09T06:13:50.990Z,99576.84
2018-06-09T06:16:19.617Z,99581.86
2018-06-09T06:18:48.185Z,99582.03
2018-06-09T06:21:16.769Z,99584.00
2018-06-09T06:23:45.408Z,99588.59
2018-06-09T06:26:14.271Z,99593.02
2018-06-09T06:28:42.842Z,99585.42
2018-06-09T06:31:11.433Z,99587.61
2018-06-09T06:33:40.007Z,99594.44
2018-06-09T06:36:08.581Z,99594.58
2018-06-09T06:38:37.168Z,99599.67
2018-06-09T06:41:05.964Z,99598.25
2018-06-09T06:43:34.966Z,99597.23
2018-06-09T06:46:03.523Z,99603.94
2018-06-09T06:48:32.043Z,99600.48
2018-06-09T06:51:00.740Z,99601.98
2018-06-09T06:53:29.419Z,99608.38
2018-06-09T06:55:58.105Z,99609.58
2018-06-09T06:58:26.808Z,99600.55
2018-06-09T07:00:55.392Z,99597.66
2018-06-09T07:03:24.228Z,99597.53
2018-06-09T07:05:53.140Z,99602.52
2018-06-09T07:08:21.822Z,99610.59
2018-06-09T07:10:50.715Z,99613.19
2018-06-09T07:13:19.648Z,99609.87
2018-06-09T07:15:48.415Z,99609.73
2018-06-09T07:18:17.221Z,99598.06
2018-06-09T07:20:46.055Z,99602.22
2018-06-09T07:23:14.833Z,99606.63
2018-06-09T07:25:43.456Z,99611.72
2018-06-09T07:28:12.171Z,99606.14
2018-06-09T07:30:40.734Z,99609.02
2018-06-09T07:33:09.531Z,99609.48
2018-06-09T07:35:38.324Z,99602.38
2018-06-09T07:38:07.008Z,99601.19
2018-06-09T07:40:35.749Z,99607.22
2018-06-09T07:43:04.457Z,99599.33
2018-06-09T07:45:33.175Z,99600.47
2018-06-09T07:48:01.844Z,99596.33
2018-06-09T07:50:30.505Z,99599.67
2018-06-09T07:52:59.336Z,99596.06
2018-06-09T07:55:27.949Z,99601.97
2018-06-09T07:57:57.028Z,99599.14
2018-06-09T08:00:30.530Z,99599.84
2018-06-09T08:02:59.817Z,99597.37
2018-06-09T08:05:28.792Z,99602.59
2018-06-09T08:07:57.780Z,99610.43
2018-06-09T08:10:31.558Z,99610.08
2018-06-09T08:13:00.751Z,99611.42
2018-06-09T08:15:29.904Z,99616.52
2018-06-09T08:17:58.925Z,99610.77
2018-06-09T08:20:27.716Z,99614.74
2018-06-09T08:22:56.430Z,99612.81
2018-06-09T08:25:26.418Z,99614.92
2018-06-09T08:27:55.064Z,99610.58
2018-06-09T08:30:23.786Z,99611.26
2018-06-09T08:32:52.543Z,99598.33
2018-06-09T08:35:21.268Z,99599.78
2018-06-09T08:37:49.941Z,99541.92
2018-06-09T08:40:18.796Z,99598.89
2018-06-09T08:42:47.786Z,99606.03
2018-06-09T08:45:16.948Z,99605.13
2018-06-09T08:47:45.713Z,99599.38
2018-06-09T08:50:14.523Z,99595.16
2018-06-09T08:52:43.205Z,99599.55
2018-06-09T08:55:12.194Z,99595.98
2018-06-09T08:57:41.074Z,99595.45
2018-06-09T09:00:09.913Z,99398.16
2018-06-09T09:02:38.806Z,99589.98
2018-06-09T09:05:07.545Z,99599.01
2018-06-09T09:07:36.248Z,99601.23
2018-06-09T09:10:04.872Z,99592.55
2018-06-09T09:12:33.653Z,99596.20
2018-06-09T09:15:02.390Z,99596.55
2018-06-09T09:17:31.262Z,99596.60
2018-06-09T09:20:00.022Z,99594.51
2018-06-09T09:22:28.979Z,99593.42
2018-06-09T09:24:57.873Z,99590.12
2018-06-09T09:27:26.685Z,99588.89
2018-06-09T09:29:55.321Z,99593.49
2018-06-09T09:32:24.048Z,99590.14
2018-06-09T09:34:52.670Z,99522.63
2018-06-09T09:37:21.431Z,99588.06
2018-06-09T09:39:50.068Z,99584.29
2018-06-09T09:42:18.727Z,99589.57
2018-06-09T09:44:47.262Z,99590.58
2018-06-09T09:47:15.908Z,99588.78
2018-06-09T09:49:45.729Z,99584.25
2018-06-09T09:52:14.500Z,99585.63
2018-06-09T09:54:43.310Z,99588.84
2018-06-09T09:57:12.397Z,99592.06
2018-06-09T09:59:41.283Z,99591.02
2018-06-09T10:02:11.154Z,99586.23
2018-06-09T10:04:40.253Z,99589.23
2018-06-09T10:07:09.781Z,99585.11
2018-06-09T10:09:38.996Z,99579.10
2018-06-09T10:12:07.867Z,99585.70
2018-06-09T10:14:36.677Z,99581.14
2018-06-09T10:17:05.456Z,99577.98
2018-06-09T10:19:34.140Z,99578.02
2018-06-09T10:22:03.064Z,99581.36
2018-06-09T10:24:31.839Z,99575.34
2018-06-09T10:27:00.467Z,99570.46
2018-06-09T10:29:29.333Z,99578.22
2018-06-09T10:31:57.965Z,99576.06
2018-06-09T10:34:26.739Z,99579.48
2018-06-09T10:36:55.493Z,99572.91
2018-06-09T10:39:24.186Z,99576.47
2018-06-09T10:41:52.791Z,99572.36
2018-06-09T10:44:21.396Z,99572.16
2018-06-09T10:46:50.424Z,99570.59
2018-06-09T10:49:19.022Z,99566.72
2018-06-09T10:51:48.384Z,99567.82
2018-06-09T10:54:17.098Z,99575.08
2018-06-09T10:56:45.721Z,99570.89
2018-06-09T10:59:14.496Z,99565.59
2018-06-09T11:01:43.692Z,99565.31
2018-06-09T11:04:12.272Z,99561.41
2018-06-09T11:06:41.488Z,99565.05
2018-06-09T11:09:10.228Z,99555.55
2018-06-09T11:11:38.991Z,99560.75
2018-06-09T11:14:07.654Z,99565.83
2018-06-09T11:16:36.355Z,99554.84
2018-06-09T11:19:05.234Z,99558.95
2018-06-09T11:21:33.924Z,99548.77
2018-06-09T11:24:02.565Z,99546.02
2018-06-09T11:26:31.873Z,99541.29
2018-06-09T11:29:06.155Z,99540.86
2018-06-09T11:31:35.162Z,99537.59
2018-06-09T11:34:03.903Z,99536.34
2018-06-09T11:36:32.735Z,99526.06
2018-06-09T11:39:01.366Z,99523.82
2018-06-09T11:41:30.109Z,99526.71
2018-06-09T11:43:58.888Z,99523.30
2018-06-09T11:46:27.729Z,99525.29
2018-06-09T11:48:56.417Z,99516.62
2018-06-09T11:51:25.155Z,99521.59
2018-06-09T11:53:53.985Z,99518.48
2018-06-09T11:56:22.559Z,99519.16
2018-06-09T11:58:51.069Z,99518.70
2018-06-09T12:01:19.660Z,99511.16
2018-06-09T12:03:48.275Z,99515.70
2018-06-09T12:06:16.904Z,99518.56
2018-06-09T12:08:45.500Z,99511.25
2018-06-09T12:11:14.082Z,99511.78
2018-06-09T12:13:42.722Z,99501.59
2018-06-09T12:16:11.396Z,99499.66
2018-06-09T12:18:40.089Z,99497.30
2018-06-09T12:21:08.645Z,99495.76
2018-06-09T12:23:37.207Z,99491.41
2018-06-09T12:26:05.779Z,99498.12
2018-06-09T12:28:34.477Z,99493.77
2018-06-09T12:31:03.136Z,99490.39
2018-06-09T12:33:31.953Z,99486.84
2018-06-09T12:36:01.484Z,99482.61
2018-06-09T12:38:30.611Z,99482.22
2018-06-09T12:41:00.222Z,99480.98
2018-06-09T12:43:29.994Z,99480.63
2018-06-09T12:45:58.909Z,99480.62
2018-06-09T12:48:27.792Z,99482.92
2018-06-09T12:50:56.685Z,99480.86
2018-06-09T12:53:25.477Z,99475.19
2018-06-09T12:55:54.597Z,99474.80
2018-06-09T12:58:23.661Z,99470.89
2018-06-09T13:00:52.622Z,99472.24
2018-06-09T13:03:21.546Z,99469.34
2018-06-09T13:05:50.853Z,99462.54
2018-06-09T13:08:20.294Z,99469.90
2018-06-09T13:10:48.948Z,99462.28
2018-06-09T13:13:18.239Z,99467.37
2018-06-09T13:15:47.239Z,99460.98
2018-06-09T13:18:16.433Z,99458.41
2018-06-09T13:20:45.558Z,99454.46
2018-06-09T13:23:14.217Z,99453.75
2018-06-09T13:25:43.056Z,99458.66
2018-06-09T13:28:11.597Z,99444.13
2018-06-09T13:30:40.173Z,99441.44
2018-06-09T13:33:09.257Z,99449.78
2018-06-09T13:35:37.797Z,99438.67
2018-06-09T13:38:06.478Z,99440.85
2018-06-09T13:40:35.155Z,99430.83
2018-06-09T13:43:03.745Z,99430.84
2018-06-09T13:45:32.359Z,99423.59
2018-06-09T13:48:00.934Z,99417.84
2018-06-09T13:50:29.540Z,99411.20
2018-06-09T13:52:58.521Z,99413.26
2018-06-09T13:55:27.101Z,99409.36
2018-06-09T13:57:56.117Z,99411.92
2018-06-09T14:00:24.841Z,99412.95
2018-06-09T14:02:53.441Z,99408.38
2018-06-09T14:05:22.245Z,99405.45
2018-06-09T14:07:51.034Z,99398.65
2018-06-09T14:10:19.728Z,99404.46
2018-06-09T14:12:48.364Z,99403.97
2018-06-09T14:15:16.948Z,99408.44
2018-06-09T14:17:45.648Z,99407.62
2018-06-09T14:20:14.493Z,99408.98
2018-06-09T14:22:43.092Z,99406.68
2018-06-09T14:25:11.662Z,99406.23
2018-06-09T14:27:40.276Z,99408.59
2018-06-09T14:30:08.868Z,99410.48
2018-06-09T14:32:37.655Z,99411.17
2018-06-09T14:35:06.809Z,99405.74
2018-06-09T14:37:35.598Z,99401.66
2018-06-09T14:40:04.209Z,99401.33
2018-06-09T14:42:32.895Z,99403.36
2018-06-09T14:45:01.560Z,99413.89
2018-06-09T14:47:30.175Z,99416.24
2018-06-09T14:49:59.028Z,99418.46
2018-06-09T14:52:27.816Z,99421.89
2018-06-09T14:54:56.604Z,99421.66
2018-06-09T14:57:25.229Z,99416.42
2018-06-09T14:59:53.899Z,99416.12
2018-06-09T15:02:22.852Z,99413.20
2018-06-09T15:04:52.140Z,99416.42
2018-06-09T15:07:20.920Z,99421.36
2018-06-09T15:09:49.654Z,99421.55
2018-06-09T15:12:18.521Z,99418.83
2018-06-09T15:14:47.484Z,99422.37
2018-06-09T15:17:16.314Z,99422.23
2018-06-09T15:19:46.379Z,99423.44
2018-06-09T15:22:16.293Z,99422.58
2018-06-09T15:24:45.388Z,99420.88
2018-06-09T15:27:14.245Z,99426.98
2018-06-09T15:29:43.890Z,99415.77
2018-06-09T15:32:12.881Z,99409.86
2018-06-09T15:34:42.275Z,99412.41
2018-06-09T15:37:11.163Z,99418.01
2018-06-09T15:39:40.058Z,99408.03
2018-06-09T15:42:09.071Z,99414.45
2018-06-09T15:44:38.109Z,99416.70
2018-06-09T15:47:07.148Z,99410.76
2018-06-09T15:49:36.409Z,99420.78
2018-06-09T15:52:05.148Z,99413.98
2018-06-09T15:54:34.136Z,99408.38
2018-06-09T15:57:02.916Z,99408.41
2018-06-09T15:59:31.953Z,99396.69
2018-06-09T16:02:00.773Z,99389.39
2018-06-09T16:04:32.811Z,99392.80
2018-06-09T16:07:01.843Z,99387.88
2018-06-09T16:09:30.956Z,99385.51
2018-06-09T16:12:00.006Z,99386.00
2018-06-09T16:14:28.981Z,99388.91
2018-06-09T16:16:58.069Z,99388.23
2018-06-09T16:19:28.506Z,99385.13
2018-06-09T16:21:58.538Z,99385.63
2018-06-09T16:27:27.768Z,99387.79
2018-06-09T16:29:58.406Z,99387.80
2018-06-09T16:35:39.387Z,99390.94
2018-06-09T16:38:11.318Z,99391.47
2018-06-09T16:40:57.255Z,99410.06
2018-06-09T16:43:29.641Z,99395.31
2018-06-09T16:45:59.760Z,99400.09
2018-06-09T16:48:28.486Z,99393.31
2018-06-09T16:50:57.858Z,99388.08
2018-06-09T16:53:26.832Z,99389.09
2018-06-09T16:55:55.512Z,99385.52
2018-06-09T16:58:24.285Z,99385.34
2018-06-09T17:00:53.112Z,99386.51
2018-06-09T17:03:22.218Z,99381.88
2018-06-09T17:05:50.829Z,99381.88
2018-06-09T17:08:26.776Z,99385.76
2018-06-09T17:10:55.925Z,99392.01
2018-06-09T17:13:38.287Z,99390.16
2018-06-09T17:22:14.930Z,99389.64
2018-06-09T17:24:44.800Z,99388.28
2018-06-09T17:27:14.592Z,99395.58
2018-06-09T17:29:43.974Z,99392.34
2018-06-09T17:32:13.369Z,99385.38
2018-06-09T17:37:18.259Z,99391.35
2018-06-09T17:39:47.317Z,99387.61
2018-06-09T17:42:16.850Z,99389.45
2018-06-09T17:44:45.651Z,99382.11
2018-06-09T17:47:15.097Z,99385.48
2018-06-09T17:49:43.956Z,99377.70
2018-06-09T17:52:12.855Z,99372.62
2018-06-09T17:54:42.933Z,99259.23
2018-06-09T17:57:11.748Z,99366.88
2018-06-09T17:59:40.586Z,99365.19
2018-06-09T18:02:09.526Z,99362.82
2018-06-09T18:04:38.166Z,99363.34
2018-06-09T18:07:07.036Z,99368.91
2018-06-09T18:09:36.340Z,99377.84
2018-06-09T18:12:05.288Z,99375.77
2018-06-09T18:14:34.044Z,99377.59
2018-06-09T18:17:03.146Z,99381.15
2018-06-09T18:19:32.019Z,99386.80
2018-06-09T18:22:00.553Z,99390.66
2018-06-09T18:24:29.365Z,99404.59
2018-06-09T18:26:59.177Z,99398.43
2018-06-09T18:29:28.039Z,99406.30
2018-06-09T18:31:57.038Z,99409.06
2018-06-09T18:34:25.987Z,99408.12
2018-06-09T18:36:54.717Z,99409.52
2018-06-09T18:39:23.731Z,99406.24
2018-06-09T18:41:52.753Z,99410.86
2018-06-09T18:44:21.976Z,99410.22
2018-06-09T18:46:50.836Z,99399.03
2018-06-09T18:49:19.549Z,99411.64
2018-06-09T18:51:49.394Z,99411.88
2018-06-09T18:54:18.037Z,99418.38
2018-06-09T18:56:46.813Z,99416.91
2018-06-09T18:59:15.497Z,99422.41
2018-06-09T19:01:45.533Z,99428.90
2018-06-09T19:04:15.813Z,99424.86
2018-06-09T19:06:48.053Z,99431.88
2018-06-09T19:09:17.033Z,99430.41
2018-06-09T19:11:45.901Z,99432.19
2018-06-09T19:14:14.962Z,99438.80
2018-06-09T19:16:44.259Z,99442.45
2018-06-09T19:19:13.258Z,99444.36
2018-06-09T19:21:42.187Z,99448.00
2018-06-09T19:26:57.140Z,99454.38
2018-06-09T19:29:27.297Z,99454.42
2018-06-09T19:31:57.739Z,99454.97
2018-06-09T19:34:27.370Z,99452.70
2018-06-09T19:36:57.056Z,99455.47
2018-06-09T19:39:26.770Z,99450.63
2018-06-09T19:41:56.688Z,99459.64
2018-06-09T19:44:34.165Z,99460.41
2018-06-09T19:47:06.814Z,99463.17
2018-06-09T19:49:36.646Z,99461.38
2018-06-09T19:52:07.342Z,99460.95
2018-06-09T19:54:36.346Z,99455.47
2018-06-09T19:57:05.632Z,99456.75
2018-06-09T19:59:34.969Z,99458.13
2018-06-09T20:02:05.916Z,99459.41
2018-06-09T20:04:35.719Z,99454.68
2018-06-09T20:07:05.355Z,99458.64
2018-06-09T20:09:35.156Z,99459.53
2018-06-09T20:12:08.744Z,99457.53
2018-06-09T20:14:40.336Z,99461.63
2018-06-09T20:17:11.107Z,99460.45
2018-06-09T20:19:41.124Z,99564.99
2018-06-09T20:22:10.451Z,99463.11
2018-06-09T20:24:40.139Z,99461.66
2018-06-09T20:27:11.488Z,99463.01
2018-06-09T20:29:41.184Z,99463.77
2018-06-09T20:32:11.172Z,99464.52
2018-06-09T20:34:40.196Z,99465.78
2018-06-09T20:37:13.853Z,99463.61
2018-06-09T20:39:43.018Z,99470.61
2018-06-09T20:42:14.247Z,99466.09
2018-06-09T20:47:21.358Z,99466.29
2018-06-09T20:49:50.840Z,99471.55
2018-06-09T20:52:20.042Z,99475.14
2018-06-09T20:54:50.210Z,99473.31
2018-06-09T20:57:19.973Z,99471.02
2018-06-09T20:59:49.773Z,99465.75
2018-06-09T21:02:19.109Z,99470.44
2018-06-09T21:04:48.343Z,99464.97
2018-06-09T21:07:18.627Z,99456.16
2018-06-09T21:09:48.655Z,99453.98
2018-06-09T21:12:17.757Z,99451.92
2018-06-09T21:14:47.231Z,99449.47
2018-06-09T21:17:16.319Z,99439.34
2018-06-09T21:19:45.273Z,99441.42
2018-06-09T21:22:14.694Z,99441.19
2018-06-09T21:24:44.023Z,99443.52
2018-06-09T21:27:18.130Z,99443.66
2018-06-09T21:29:55.496Z,99201.97
2018-06-09T21:32:28.033Z,99442.21
2018-06-09T21:35:11.906Z,99442.48
2018-06-09T21:37:43.816Z,99438.83
2018-06-09T21:40:17.917Z,99438.22
2018-06-09T21:42:52.165Z,99431.77
2018-06-09T21:45:23.983Z,99430.63
2018-06-09T21:47:53.237Z,99432.86
2018-06-09T21:50:22.180Z,99441.29
2018-06-09T21:52:51.271Z,99441.16
2018-06-09T21:55:20.037Z,99455.34
2018-06-09T21:57:48.749Z,99461.67
2018-06-09T22:00:17.488Z,99450.09
2018-06-09T22:02:46.143Z,99441.17
2018-06-09T22:05:14.918Z,99438.63
2018-06-09T22:07:43.747Z,99444.59
2018-06-09T22:10:12.455Z,99449.48
2018-06-09T22:12:41.158Z,99455.22
2018-06-09T22:15:09.866Z,99457.90
2018-06-09T22:17:38.574Z,99461.92
2018-06-09T22:20:07.580Z,99465.48
2018-06-09T22:22:37.252Z,99464.25
2018-06-09T22:25:05.903Z,99468.64
2018-06-09T22:27:34.477Z,99462.80
2018-06-09T22:30:03.407Z,99456.56
2018-06-09T22:32:32.187Z,99456.56
2018-06-09T22:35:00.915Z,99466.06
2018-06-09T22:37:29.608Z,99473.55
2018-06-09T22:39:58.316Z,99461.22
2018-06-09T22:42:26.929Z,99459.73
2018-06-09T22:44:55.674Z,99458.65
2018-06-09T22:47:24.453Z,99460.72
2018-06-09T22:49:53.182Z,99471.45
2018-06-09T22:52:21.880Z,99487.70
2018-06-09T22:54:50.580Z,99493.80
2018-06-09T22:57:19.368Z,99486.84
2018-06-09T22:59:48.022Z,99469.14
2018-06-09T23:02:16.660Z,99449.38
2018-06-09T23:04:45.367Z,99443.64
2018-06-09T23:07:14.081Z,99467.44
2018-06-09T23:09:42.651Z,99489.27
2018-06-09T23:12:11.242Z,99468.16
2018-06-09T23:14:39.932Z,99461.23
2018-06-09T23:17:08.550Z,99459.38
2018-06-09T23:19:37.390Z,99461.70
2018-06-09T23:22:06.070Z,99469.40
2018-06-09T23:24:34.649Z,99482.09
2018-06-09T23:27:03.309Z,99486.48
2018-06-09T23:29:31.994Z,99491.09
2018-06-09T23:32:00.735Z,99487.02
2018-06-09T23:34:29.317Z,99495.30
2018-06-09T23:36:57.908Z,99502.72
2018-06-09T23:39:26.463Z,99505.84
2018-06-09T23:41:55.151Z,99512.43
2018-06-09T23:44:23.704Z,99510.24
2018-06-09T23:46:52.340Z,99513.02
2018-06-09T23:49:20.947Z,99518.25
2018-06-09T23:51:49.562Z,99535.41
2018-06-09T23:54:18.213Z,99523.54
2018-06-09T23:56:46.905Z,99529.17
2018-06-09T23:59:15.509Z,99539.09
